sensor_id;sensor_type;location;lat;lon;timestamp;P1;durP1;ratioP1;P2;durP2;ratioP2
56136;SDS011;42008;52.934;5.884;2022-11-23T00:01:22;22.07;;;12.93;;
56136;SDS011;42008;52.934;5.884;2022-11-23T00:03:50;20.23;;;11.93;;
56136;SDS011;42008;52.934;5.884;2022-11-23T00:06:18;19.83;;;12.83;;
56136;SDS011;42008;52.934;5.884;2022-11-23T00:08:45;18.03;;;12.13;;
56136;SDS011;42008;52.934;5.884;2022-11-23T00:11:11;24.70;;;13.50;;
56136;SDS011;42008;52.934;5.884;2022-11-23T00:13:37;22.37;;;13.03;;
56136;SDS011;42008;52.934;5.884;2022-11-23T00:16:08;20.30;;;13.00;;
56136;SDS011;42008;52.934;5.884;2022-11-23T00:21:09;26.67;;;14.40;;
56136;SDS011;42008;52.934;5.884;2022-11-23T00:23:36;21.20;;;15.70;;
56136;SDS011;42008;52.934;5.884;2022-11-23T00:26:02;23.10;;;13.80;;
56136;SDS011;42008;52.934;5.884;2022-11-23T00:28:28;25.80;;;14.87;;
56136;SDS011;42008;52.934;5.884;2022-11-23T00:30:54;24.07;;;15.00;;
56136;SDS011;42008;52.934;5.884;2022-11-23T00:33:19;21.77;;;15.30;;
56136;SDS011;42008;52.934;5.884;2022-11-23T00:35:45;28.57;;;15.20;;
56136;SDS011;42008;52.934;5.884;2022-11-23T00:38:10;29.27;;;16.27;;
56136;SDS011;42008;52.934;5.884;2022-11-23T00:40:36;25.70;;;15.67;;
56136;SDS011;42008;52.934;5.884;2022-11-23T00:43:02;27.03;;;15.77;;
56136;SDS011;42008;52.934;5.884;2022-11-23T00:45:27;25.83;;;16.10;;
56136;SDS011;42008;52.934;5.884;2022-11-23T00:47:53;25.73;;;16.03;;
56136;SDS011;42008;52.934;5.884;2022-11-23T00:50:19;23.37;;;15.43;;
56136;SDS011;42008;52.934;5.884;2022-11-23T00:52:44;21.57;;;13.33;;
56136;SDS011;42008;52.934;5.884;2022-11-23T00:55:10;20.73;;;15.07;;
56136;SDS011;42008;52.934;5.884;2022-11-23T00:57:35;31.03;;;16.80;;
56136;SDS011;42008;52.934;5.884;2022-11-23T01:00:01;23.97;;;13.17;;
56136;SDS011;42008;52.934;5.884;2022-11-23T01:02:28;25.20;;;15.80;;
56136;SDS011;42008;52.934;5.884;2022-11-23T01:04:54;28.37;;;15.37;;
56136;SDS011;42008;52.934;5.884;2022-11-23T01:07:20;28.10;;;16.30;;
56136;SDS011;42008;52.934;5.884;2022-11-23T01:09:45;24.17;;;16.40;;
56136;SDS011;42008;52.934;5.884;2022-11-23T01:12:11;26.87;;;15.60;;
56136;SDS011;42008;52.934;5.884;2022-11-23T01:14:36;29.60;;;15.60;;
56136;SDS011;42008;52.934;5.884;2022-11-23T01:17:02;25.30;;;14.57;;
56136;SDS011;42008;52.934;5.884;2022-11-23T01:19:27;22.57;;;15.10;;
56136;SDS011;42008;52.934;5.884;2022-11-23T01:21:54;25.53;;;15.87;;
56136;SDS011;42008;52.934;5.884;2022-11-23T01:24:20;26.47;;;16.93;;
56136;SDS011;42008;52.934;5.884;2022-11-23T01:26:50;26.73;;;16.43;;
56136;SDS011;42008;52.934;5.884;2022-11-23T01:29:16;33.20;;;16.83;;
56136;SDS011;42008;52.934;5.884;2022-11-23T01:31:42;27.37;;;17.13;;
56136;SDS011;42008;52.934;5.884;2022-11-23T01:34:09;28.87;;;17.83;;
56136;SDS011;42008;52.934;5.884;2022-11-23T01:36:36;28.50;;;17.77;;
56136;SDS011;42008;52.934;5.884;2022-11-23T01:39:02;34.43;;;18.40;;
56136;SDS011;42008;52.934;5.884;2022-11-23T01:41:33;27.43;;;17.60;;
56136;SDS011;42008;52.934;5.884;2022-11-23T01:44:00;26.93;;;17.47;;
56136;SDS011;42008;52.934;5.884;2022-11-23T01:46:44;33.43;;;18.93;;
56136;SDS011;42008;52.934;5.884;2022-11-23T01:49:10;32.07;;;19.47;;
56136;SDS011;42008;52.934;5.884;2022-11-23T01:51:36;31.53;;;18.67;;
56136;SDS011;42008;52.934;5.884;2022-11-23T01:54:27;35.87;;;22.03;;
56136;SDS011;42008;52.934;5.884;2022-11-23T01:56:56;36.47;;;21.03;;
56136;SDS011;42008;52.934;5.884;2022-11-23T01:59:27;35.53;;;21.45;;
56136;SDS011;42008;52.934;5.884;2022-11-23T02:01:55;32.33;;;21.60;;
56136;SDS011;42008;52.934;5.884;2022-11-23T02:04:22;32.93;;;21.37;;
56136;SDS011;42008;52.934;5.884;2022-11-23T02:06:51;43.30;;;22.27;;
56136;SDS011;42008;52.934;5.884;2022-11-23T02:09:17;40.80;;;22.73;;
56136;SDS011;42008;52.934;5.884;2022-11-23T02:11:43;37.80;;;23.30;;
56136;SDS011;42008;52.934;5.884;2022-11-23T02:14:09;42.77;;;23.70;;
56136;SDS011;42008;52.934;5.884;2022-11-23T02:16:35;36.30;;;23.47;;
56136;SDS011;42008;52.934;5.884;2022-11-23T02:19:02;38.43;;;25.77;;
56136;SDS011;42008;52.934;5.884;2022-11-23T02:21:32;42.37;;;25.93;;
56136;SDS011;42008;52.934;5.884;2022-11-23T02:26:27;47.93;;;27.20;;
56136;SDS011;42008;52.934;5.884;2022-11-23T02:29:37;39.97;;;25.50;;
56136;SDS011;42008;52.934;5.884;2022-11-23T02:34:13;48.40;;;26.93;;
56136;SDS011;42008;52.934;5.884;2022-11-23T02:36:41;48.97;;;29.03;;
56136;SDS011;42008;52.934;5.884;2022-11-23T02:39:10;42.83;;;26.57;;
56136;SDS011;42008;52.934;5.884;2022-11-23T02:41:41;44.93;;;28.13;;
56136;SDS011;42008;52.934;5.884;2022-11-23T02:44:17;48.92;;;29.83;;
56136;SDS011;42008;52.934;5.884;2022-11-23T02:47:06;51.90;;;30.77;;
56136;SDS011;42008;52.934;5.884;2022-11-23T02:49:33;57.83;;;33.17;;
56136;SDS011;42008;52.934;5.884;2022-11-23T02:51:59;55.80;;;32.90;;
56136;SDS011;42008;52.934;5.884;2022-11-23T02:54:25;47.23;;;31.30;;
56136;SDS011;42008;52.934;5.884;2022-11-23T02:56:51;58.13;;;32.40;;
56136;SDS011;42008;52.934;5.884;2022-11-23T02:59:17;58.70;;;34.00;;
56136;SDS011;42008;52.934;5.884;2022-11-23T03:01:42;54.53;;;33.13;;
56136;SDS011;42008;52.934;5.884;2022-11-23T03:04:08;50.57;;;30.60;;
56136;SDS011;42008;52.934;5.884;2022-11-23T03:06:34;59.10;;;34.17;;
56136;SDS011;42008;52.934;5.884;2022-11-23T03:09:00;62.37;;;34.47;;
56136;SDS011;42008;52.934;5.884;2022-11-23T03:11:26;53.30;;;33.57;;
56136;SDS011;42008;52.934;5.884;2022-11-23T03:13:51;50.07;;;32.17;;
56136;SDS011;42008;52.934;5.884;2022-11-23T03:16:17;49.90;;;31.97;;
56136;SDS011;42008;52.934;5.884;2022-11-23T03:18:42;55.13;;;35.63;;
56136;SDS011;42008;52.934;5.884;2022-11-23T03:21:08;57.73;;;32.73;;
56136;SDS011;42008;52.934;5.884;2022-11-23T03:23:34;59.13;;;34.17;;
56136;SDS011;42008;52.934;5.884;2022-11-23T03:26:00;57.73;;;35.27;;
56136;SDS011;42008;52.934;5.884;2022-11-23T03:28:26;61.87;;;36.33;;
56136;SDS011;42008;52.934;5.884;2022-11-23T03:30:52;58.03;;;34.40;;
56136;SDS011;42008;52.934;5.884;2022-11-23T03:33:18;55.60;;;35.13;;
56136;SDS011;42008;52.934;5.884;2022-11-23T03:35:44;60.47;;;35.90;;
56136;SDS011;42008;52.934;5.884;2022-11-23T03:38:10;56.67;;;36.60;;
56136;SDS011;42008;52.934;5.884;2022-11-23T03:40:36;60.73;;;35.93;;
56136;SDS011;42008;52.934;5.884;2022-11-23T03:43:02;64.97;;;38.30;;
56136;SDS011;42008;52.934;5.884;2022-11-23T03:45:27;63.20;;;37.57;;
56136;SDS011;42008;52.934;5.884;2022-11-23T03:47:53;63.07;;;38.07;;
56136;SDS011;42008;52.934;5.884;2022-11-23T03:50:19;67.60;;;38.77;;
56136;SDS011;42008;52.934;5.884;2022-11-23T03:52:44;61.10;;;37.40;;
56136;SDS011;42008;52.934;5.884;2022-11-23T03:55:12;65.53;;;39.07;;
56136;SDS011;42008;52.934;5.884;2022-11-23T03:57:38;65.47;;;40.30;;
56136;SDS011;42008;52.934;5.884;2022-11-23T04:00:04;67.43;;;41.37;;
56136;SDS011;42008;52.934;5.884;2022-11-23T04:02:30;67.13;;;39.80;;
56136;SDS011;42008;52.934;5.884;2022-11-23T04:04:55;68.57;;;41.10;;
56136;SDS011;42008;52.934;5.884;2022-11-23T04:07:21;61.73;;;37.17;;
56136;SDS011;42008;52.934;5.884;2022-11-23T04:09:46;71.20;;;41.10;;
56136;SDS011;42008;52.934;5.884;2022-11-23T04:12:12;76.57;;;41.20;;
56136;SDS011;42008;52.934;5.884;2022-11-23T04:14:37;80.17;;;44.13;;
56136;SDS011;42008;52.934;5.884;2022-11-23T04:17:03;73.43;;;43.17;;
56136;SDS011;42008;52.934;5.884;2022-11-23T04:19:29;74.33;;;41.73;;
56136;SDS011;42008;52.934;5.884;2022-11-23T04:21:55;75.60;;;42.33;;
56136;SDS011;42008;52.934;5.884;2022-11-23T04:24:20;74.60;;;43.40;;
56136;SDS011;42008;52.934;5.884;2022-11-23T04:26:46;73.10;;;42.07;;
56136;SDS011;42008;52.934;5.884;2022-11-23T04:29:12;78.97;;;43.83;;
56136;SDS011;42008;52.934;5.884;2022-11-23T04:31:37;85.90;;;44.83;;
56136;SDS011;42008;52.934;5.884;2022-11-23T04:34:03;70.40;;;41.70;;
56136;SDS011;42008;52.934;5.884;2022-11-23T04:36:28;80.53;;;45.00;;
56136;SDS011;42008;52.934;5.884;2022-11-23T04:38:54;80.87;;;42.67;;
56136;SDS011;42008;52.934;5.884;2022-11-23T04:41:20;79.37;;;44.57;;
56136;SDS011;42008;52.934;5.884;2022-11-23T04:43:47;84.53;;;43.97;;
56136;SDS011;42008;52.934;5.884;2022-11-23T04:46:12;86.23;;;45.53;;
56136;SDS011;42008;52.934;5.884;2022-11-23T04:48:38;92.97;;;46.30;;
56136;SDS011;42008;52.934;5.884;2022-11-23T04:51:04;87.87;;;46.37;;
56136;SDS011;42008;52.934;5.884;2022-11-23T04:53:30;86.77;;;46.67;;
56136;SDS011;42008;52.934;5.884;2022-11-23T04:55:55;100.43;;;47.67;;
56136;SDS011;42008;52.934;5.884;2022-11-23T04:58:21;87.03;;;47.00;;
56136;SDS011;42008;52.934;5.884;2022-11-23T05:00:47;98.93;;;48.97;;
56136;SDS011;42008;52.934;5.884;2022-11-23T05:03:12;95.57;;;47.63;;
56136;SDS011;42008;52.934;5.884;2022-11-23T05:05:38;90.53;;;44.23;;
56136;SDS011;42008;52.934;5.884;2022-11-23T05:08:05;92.93;;;47.27;;
56136;SDS011;42008;52.934;5.884;2022-11-23T05:10:30;90.30;;;46.37;;
56136;SDS011;42008;52.934;5.884;2022-11-23T05:12:56;94.57;;;47.70;;
56136;SDS011;42008;52.934;5.884;2022-11-23T05:15:21;86.93;;;46.07;;
56136;SDS011;42008;52.934;5.884;2022-11-23T05:17:47;85.00;;;46.43;;
56136;SDS011;42008;52.934;5.884;2022-11-23T05:20:13;85.77;;;44.47;;
56136;SDS011;42008;52.934;5.884;2022-11-23T05:22:39;88.57;;;42.97;;
56136;SDS011;42008;52.934;5.884;2022-11-23T05:25:04;72.97;;;41.97;;
56136;SDS011;42008;52.934;5.884;2022-11-23T05:27:30;72.77;;;39.97;;
56136;SDS011;42008;52.934;5.884;2022-11-23T05:29:56;74.37;;;41.03;;
56136;SDS011;42008;52.934;5.884;2022-11-23T05:32:21;67.53;;;38.27;;
56136;SDS011;42008;52.934;5.884;2022-11-23T05:34:47;64.50;;;38.57;;
56136;SDS011;42008;52.934;5.884;2022-11-23T05:37:12;73.83;;;38.53;;
56136;SDS011;42008;52.934;5.884;2022-11-23T05:39:38;67.93;;;38.50;;
56136;SDS011;42008;52.934;5.884;2022-11-23T05:42:03;52.80;;;32.40;;
56136;SDS011;42008;52.934;5.884;2022-11-23T05:44:29;57.73;;;34.43;;
56136;SDS011;42008;52.934;5.884;2022-11-23T05:46:54;53.63;;;31.13;;
56136;SDS011;42008;52.934;5.884;2022-11-23T05:49:20;51.97;;;30.50;;
56136;SDS011;42008;52.934;5.884;2022-11-23T05:51:46;48.90;;;29.10;;
56136;SDS011;42008;52.934;5.884;2022-11-23T05:54:11;48.33;;;28.47;;
56136;SDS011;42008;52.934;5.884;2022-11-23T05:56:37;47.70;;;28.10;;
56136;SDS011;42008;52.934;5.884;2022-11-23T05:59:02;48.13;;;28.23;;
56136;SDS011;42008;52.934;5.884;2022-11-23T06:01:29;45.57;;;28.43;;
56136;SDS011;42008;52.934;5.884;2022-11-23T06:03:55;40.70;;;27.53;;
56136;SDS011;42008;52.934;5.884;2022-11-23T06:06:21;38.73;;;24.90;;
56136;SDS011;42008;52.934;5.884;2022-11-23T06:08:47;51.60;;;27.50;;
56136;SDS011;42008;52.934;5.884;2022-11-23T06:11:12;46.30;;;26.93;;
56136;SDS011;42008;52.934;5.884;2022-11-23T06:13:38;42.10;;;27.40;;
56136;SDS011;42008;52.934;5.884;2022-11-23T06:16:04;40.57;;;25.47;;
56136;SDS011;42008;52.934;5.884;2022-11-23T06:18:29;42.13;;;25.23;;
56136;SDS011;42008;52.934;5.884;2022-11-23T06:20:58;43.23;;;25.83;;
56136;SDS011;42008;52.934;5.884;2022-11-23T06:23:25;38.73;;;25.60;;
56136;SDS011;42008;52.934;5.884;2022-11-23T06:25:50;38.80;;;24.77;;
56136;SDS011;42008;52.934;5.884;2022-11-23T06:28:16;40.93;;;24.63;;
56136;SDS011;42008;52.934;5.884;2022-11-23T06:30:42;39.63;;;24.07;;
56136;SDS011;42008;52.934;5.884;2022-11-23T06:33:07;35.93;;;23.13;;
56136;SDS011;42008;52.934;5.884;2022-11-23T06:35:33;37.23;;;23.60;;
56136;SDS011;42008;52.934;5.884;2022-11-23T06:37:58;34.93;;;22.07;;
56136;SDS011;42008;52.934;5.884;2022-11-23T06:40:24;35.97;;;20.83;;
56136;SDS011;42008;52.934;5.884;2022-11-23T06:42:50;35.53;;;21.60;;
56136;SDS011;42008;52.934;5.884;2022-11-23T06:45:18;29.03;;;19.27;;
56136;SDS011;42008;52.934;5.884;2022-11-23T06:47:43;30.70;;;19.47;;
56136;SDS011;42008;52.934;5.884;2022-11-23T06:50:09;29.43;;;18.07;;
56136;SDS011;42008;52.934;5.884;2022-11-23T06:52:34;26.97;;;17.93;;
56136;SDS011;42008;52.934;5.884;2022-11-23T06:55:00;29.10;;;18.23;;
56136;SDS011;42008;52.934;5.884;2022-11-23T06:57:25;26.57;;;18.47;;
56136;SDS011;42008;52.934;5.884;2022-11-23T06:59:51;25.27;;;16.30;;
56136;SDS011;42008;52.934;5.884;2022-11-23T07:02:16;27.50;;;16.07;;
56136;SDS011;42008;52.934;5.884;2022-11-23T07:04:42;26.23;;;14.53;;
56136;SDS011;42008;52.934;5.884;2022-11-23T07:07:08;29.77;;;16.90;;
56136;SDS011;42008;52.934;5.884;2022-11-23T07:09:33;31.30;;;16.73;;
56136;SDS011;42008;52.934;5.884;2022-11-23T07:11:59;23.73;;;15.50;;
56136;SDS011;42008;52.934;5.884;2022-11-23T07:14:25;26.00;;;15.20;;
56136;SDS011;42008;52.934;5.884;2022-11-23T07:16:50;23.87;;;15.90;;
56136;SDS011;42008;52.934;5.884;2022-11-23T07:19:16;26.63;;;16.07;;
56136;SDS011;42008;52.934;5.884;2022-11-23T07:21:41;24.13;;;15.67;;
56136;SDS011;42008;52.934;5.884;2022-11-23T07:24:08;25.10;;;14.30;;
56136;SDS011;42008;52.934;5.884;2022-11-23T07:26:34;32.07;;;16.47;;
56136;SDS011;42008;52.934;5.884;2022-11-23T07:28:59;27.93;;;16.33;;
56136;SDS011;42008;52.934;5.884;2022-11-23T07:31:25;23.03;;;14.53;;
56136;SDS011;42008;52.934;5.884;2022-11-23T07:33:50;25.37;;;14.83;;
56136;SDS011;42008;52.934;5.884;2022-11-23T07:36:17;31.17;;;15.90;;
56136;SDS011;42008;52.934;5.884;2022-11-23T07:38:43;21.53;;;14.47;;
56136;SDS011;42008;52.934;5.884;2022-11-23T07:41:09;24.83;;;14.23;;
56136;SDS011;42008;52.934;5.884;2022-11-23T07:43:34;32.80;;;15.37;;
56136;SDS011;42008;52.934;5.884;2022-11-23T07:46:00;28.30;;;15.20;;
56136;SDS011;42008;52.934;5.884;2022-11-23T07:48:25;30.27;;;15.23;;
56136;SDS011;42008;52.934;5.884;2022-11-23T07:50:51;27.47;;;15.63;;
56136;SDS011;42008;52.934;5.884;2022-11-23T07:53:18;26.83;;;15.43;;
56136;SDS011;42008;52.934;5.884;2022-11-23T07:55:43;25.53;;;15.40;;
56136;SDS011;42008;52.934;5.884;2022-11-23T07:58:09;30.10;;;16.07;;
56136;SDS011;42008;52.934;5.884;2022-11-23T08:00:35;26.47;;;15.33;;
56136;SDS011;42008;52.934;5.884;2022-11-23T08:03:01;24.67;;;14.63;;
56136;SDS011;42008;52.934;5.884;2022-11-23T08:05:27;25.73;;;15.97;;
56136;SDS011;42008;52.934;5.884;2022-11-23T08:07:59;28.93;;;16.57;;
56136;SDS011;42008;52.934;5.884;2022-11-23T08:10:30;29.13;;;15.80;;
56136;SDS011;42008;52.934;5.884;2022-11-23T08:12:59;26.57;;;15.63;;
56136;SDS011;42008;52.934;5.884;2022-11-23T08:15:27;28.03;;;16.27;;
56136;SDS011;42008;52.934;5.884;2022-11-23T08:17:53;23.97;;;15.50;;
56136;SDS011;42008;52.934;5.884;2022-11-23T08:20:23;30.83;;;15.00;;
56136;SDS011;42008;52.934;5.884;2022-11-23T08:22:49;22.20;;;14.50;;
56136;SDS011;42008;52.934;5.884;2022-11-23T08:25:15;28.40;;;14.47;;
56136;SDS011;42008;52.934;5.884;2022-11-23T08:27:40;22.70;;;12.57;;
56136;SDS011;42008;52.934;5.884;2022-11-23T08:30:06;28.70;;;12.90;;
56136;SDS011;42008;52.934;5.884;2022-11-23T08:32:32;25.30;;;11.43;;
56136;SDS011;42008;52.934;5.884;2022-11-23T08:34:58;24.13;;;11.33;;
56136;SDS011;42008;52.934;5.884;2022-11-23T08:37:23;19.93;;;10.90;;
56136;SDS011;42008;52.934;5.884;2022-11-23T08:39:49;21.10;;;9.70;;
56136;SDS011;42008;52.934;5.884;2022-11-23T08:42:15;20.30;;;10.20;;
56136;SDS011;42008;52.934;5.884;2022-11-23T08:44:40;20.30;;;9.70;;
56136;SDS011;42008;52.934;5.884;2022-11-23T08:47:06;27.03;;;9.53;;
56136;SDS011;42008;52.934;5.884;2022-11-23T08:49:32;21.80;;;8.80;;
56136;SDS011;42008;52.934;5.884;2022-11-23T08:51:57;21.20;;;9.37;;
56136;SDS011;42008;52.934;5.884;2022-11-23T08:54:24;20.30;;;8.80;;
56136;SDS011;42008;52.934;5.884;2022-11-23T08:56:50;19.47;;;9.07;;
56136;SDS011;42008;52.934;5.884;2022-11-23T08:59:15;19.23;;;8.37;;
56136;SDS011;42008;52.934;5.884;2022-11-23T09:01:42;20.23;;;8.43;;
56136;SDS011;42008;52.934;5.884;2022-11-23T09:04:07;23.27;;;8.23;;
56136;SDS011;42008;52.934;5.884;2022-11-23T09:06:33;20.37;;;8.30;;
56136;SDS011;42008;52.934;5.884;2022-11-23T09:08:59;24.47;;;7.47;;
56136;SDS011;42008;52.934;5.884;2022-11-23T09:11:25;20.50;;;8.00;;
56136;SDS011;42008;52.934;5.884;2022-11-23T09:13:51;20.13;;;7.37;;
56136;SDS011;42008;52.934;5.884;2022-11-23T09:16:17;16.07;;;7.23;;
56136;SDS011;42008;52.934;5.884;2022-11-23T09:18:43;23.03;;;7.83;;
56136;SDS011;42008;52.934;5.884;2022-11-23T09:21:09;21.97;;;7.20;;
56136;SDS011;42008;52.934;5.884;2022-11-23T09:23:34;23.13;;;7.60;;
56136;SDS011;42008;52.934;5.884;2022-11-23T09:26:00;21.83;;;7.67;;
56136;SDS011;42008;52.934;5.884;2022-11-23T09:28:32;20.43;;;6.60;;
56136;SDS011;42008;52.934;5.884;2022-11-23T09:31:00;22.00;;;6.73;;
56136;SDS011;42008;52.934;5.884;2022-11-23T09:33:27;19.60;;;7.50;;
56136;SDS011;42008;52.934;5.884;2022-11-23T09:35:57;19.40;;;6.47;;
56136;SDS011;42008;52.934;5.884;2022-11-23T09:38:23;25.50;;;7.03;;
56136;SDS011;42008;52.934;5.884;2022-11-23T09:40:49;21.03;;;6.20;;
56136;SDS011;42008;52.934;5.884;2022-11-23T09:49:27;23.10;;;6.13;;
56136;SDS011;42008;52.934;5.884;2022-11-23T09:52:06;28.20;;;6.70;;
56136;SDS011;42008;52.934;5.884;2022-11-23T09:54:38;29.17;;;6.40;;
56136;SDS011;42008;52.934;5.884;2022-11-23T09:57:05;22.70;;;5.33;;
56136;SDS011;42008;52.934;5.884;2022-11-23T10:01:59;20.53;;;4.90;;
56136;SDS011;42008;52.934;5.884;2022-11-23T10:04:25;27.70;;;6.00;;
56136;SDS011;42008;52.934;5.884;2022-11-23T10:07:11;22.93;;;6.70;;
56136;SDS011;42008;52.934;5.884;2022-11-23T10:12:45;20.20;;;4.83;;
56136;SDS011;42008;52.934;5.884;2022-11-23T10:15:23;18.13;;;4.43;;
56136;SDS011;42008;52.934;5.884;2022-11-23T10:18:08;24.20;;;4.70;;
56136;SDS011;42008;52.934;5.884;2022-11-23T10:26:19;22.37;;;4.63;;
56136;SDS011;42008;52.934;5.884;2022-11-23T10:28:50;20.50;;;4.50;;
56136;SDS011;42008;52.934;5.884;2022-11-23T10:31:18;18.77;;;4.20;;
56136;SDS011;42008;52.934;5.884;2022-11-23T10:33:57;20.87;;;4.97;;
56136;SDS011;42008;52.934;5.884;2022-11-23T10:36:39;18.73;;;4.10;;
56136;SDS011;42008;52.934;5.884;2022-11-23T10:39:21;20.83;;;4.13;;
56136;SDS011;42008;52.934;5.884;2022-11-23T10:41:51;17.77;;;4.43;;
56136;SDS011;42008;52.934;5.884;2022-11-23T10:46:50;20.07;;;4.00;;
56136;SDS011;42008;52.934;5.884;2022-11-23T10:49:20;23.13;;;4.30;;
56136;SDS011;42008;52.934;5.884;2022-11-23T10:51:54;17.27;;;3.70;;
56136;SDS011;42008;52.934;5.884;2022-11-23T10:54:26;18.67;;;3.67;;
56136;SDS011;42008;52.934;5.884;2022-11-23T10:56:56;22.87;;;4.40;;
56136;SDS011;42008;52.934;5.884;2022-11-23T10:59:34;22.27;;;4.07;;
56136;SDS011;42008;52.934;5.884;2022-11-23T11:02:12;18.97;;;3.80;;
56136;SDS011;42008;52.934;5.884;2022-11-23T11:04:40;19.30;;;4.40;;
56136;SDS011;42008;52.934;5.884;2022-11-23T11:07:48;19.23;;;3.93;;
56136;SDS011;42008;52.934;5.884;2022-11-23T11:09:56;17.67;;;3.90;;
56136;SDS011;42008;52.934;5.884;2022-11-23T11:12:24;19.00;;;3.87;;
56136;SDS011;42008;52.934;5.884;2022-11-23T11:14:54;22.03;;;5.70;;
56136;SDS011;42008;52.934;5.884;2022-11-23T11:17:27;21.57;;;3.93;;
56136;SDS011;42008;52.934;5.884;2022-11-23T11:19:55;19.37;;;3.83;;
56136;SDS011;42008;52.934;5.884;2022-11-23T11:22:33;16.67;;;4.00;;
56136;SDS011;42008;52.934;5.884;2022-11-23T11:25:04;18.00;;;3.90;;
56136;SDS011;42008;52.934;5.884;2022-11-23T11:27:31;15.13;;;3.77;;
56136;SDS011;42008;52.934;5.884;2022-11-23T11:30:05;16.90;;;3.70;;
56136;SDS011;42008;52.934;5.884;2022-11-23T11:32:56;20.13;;;4.20;;
56136;SDS011;42008;52.934;5.884;2022-11-23T11:35:31;19.50;;;3.80;;
56136;SDS011;42008;52.934;5.884;2022-11-23T11:38:07;14.60;;;3.27;;
56136;SDS011;42008;52.934;5.884;2022-11-23T11:45:47;17.03;;;3.70;;
56136;SDS011;42008;52.934;5.884;2022-11-23T11:50:53;14.93;;;3.53;;
56136;SDS011;42008;52.934;5.884;2022-11-23T11:53:32;13.73;;;3.40;;
56136;SDS011;42008;52.934;5.884;2022-11-23T11:59:04;15.40;;;3.80;;
56136;SDS011;42008;52.934;5.884;2022-11-23T12:01:53;18.07;;;3.80;;
56136;SDS011;42008;52.934;5.884;2022-11-23T12:04:20;18.07;;;3.53;;
56136;SDS011;42008;52.934;5.884;2022-11-23T12:06:53;12.60;;;3.27;;
56136;SDS011;42008;52.934;5.884;2022-11-23T12:09:28;18.27;;;4.07;;
56136;SDS011;42008;52.934;5.884;2022-11-23T12:11:58;10.60;;;3.00;;
56136;SDS011;42008;52.934;5.884;2022-11-23T12:14:24;16.40;;;3.60;;
56136;SDS011;42008;52.934;5.884;2022-11-23T12:24:36;12.60;;;2.63;;
56136;SDS011;42008;52.934;5.884;2022-11-23T12:32:46;15.40;;;3.13;;
56136;SDS011;42008;52.934;5.884;2022-11-23T12:43:07;14.47;;;2.90;;
56136;SDS011;42008;52.934;5.884;2022-11-23T12:51:21;21.33;;;3.53;;
56136;SDS011;42008;52.934;5.884;2022-11-23T12:56:35;16.57;;;3.20;;
56136;SDS011;42008;52.934;5.884;2022-11-23T12:59:19;10.80;;;3.03;;
56136;SDS011;42008;52.934;5.884;2022-11-23T13:01:51;15.73;;;3.07;;
56136;SDS011;42008;52.934;5.884;2022-11-23T13:12:41;12.43;;;3.10;;
56136;SDS011;42008;52.934;5.884;2022-11-23T13:23:49;13.53;;;2.93;;
56136;SDS011;42008;52.934;5.884;2022-11-23T13:26:21;16.63;;;3.10;;
56136;SDS011;42008;52.934;5.884;2022-11-23T13:28:48;17.00;;;3.47;;
56136;SDS011;42008;52.934;5.884;2022-11-23T13:31:18;13.97;;;2.90;;
56136;SDS011;42008;52.934;5.884;2022-11-23T13:33:57;14.43;;;3.30;;
56136;SDS011;42008;52.934;5.884;2022-11-23T13:38:53;10.97;;;2.77;;
56136;SDS011;42008;52.934;5.884;2022-11-23T13:44:18;13.83;;;2.93;;
56136;SDS011;42008;52.934;5.884;2022-11-23T13:46:58;13.97;;;2.87;;
56136;SDS011;42008;52.934;5.884;2022-11-23T13:54:51;16.00;;;2.70;;
56136;SDS011;42008;52.934;5.884;2022-11-23T13:57:19;12.03;;;2.47;;
56136;SDS011;42008;52.934;5.884;2022-11-23T13:59:45;12.87;;;2.80;;
56136;SDS011;42008;52.934;5.884;2022-11-23T14:04:38;14.53;;;2.60;;
56136;SDS011;42008;52.934;5.884;2022-11-23T14:12:47;9.27;;;2.10;;
56136;SDS011;42008;52.934;5.884;2022-11-23T14:15:34;11.63;;;2.47;;
56136;SDS011;42008;52.934;5.884;2022-11-23T14:18:06;15.73;;;2.35;;
56136;SDS011;42008;52.934;5.884;2022-11-23T14:27:08;8.90;;;2.03;;
56136;SDS011;42008;52.934;5.884;2022-11-23T14:29:57;8.80;;;2.30;;
56136;SDS011;42008;52.934;5.884;2022-11-23T14:32:53;13.20;;;2.70;;
56136;SDS011;42008;52.934;5.884;2022-11-23T14:43:46;14.13;;;2.70;;
56136;SDS011;42008;52.934;5.884;2022-11-23T14:48:43;11.97;;;2.23;;
56136;SDS011;42008;52.934;5.884;2022-11-23T14:51:12;7.67;;;1.93;;
56136;SDS011;42008;52.934;5.884;2022-11-23T14:53:47;9.20;;;2.10;;
56136;SDS011;42008;52.934;5.884;2022-11-23T14:58:54;15.07;;;3.33;;
56136;SDS011;42008;52.934;5.884;2022-11-23T15:01:26;10.57;;;2.43;;
56136;SDS011;42008;52.934;5.884;2022-11-23T15:03:58;11.53;;;2.20;;
56136;SDS011;42008;52.934;5.884;2022-11-23T15:06:31;12.37;;;2.33;;
56136;SDS011;42008;52.934;5.884;2022-11-23T15:09:38;13.93;;;2.67;;
56136;SDS011;42008;52.934;5.884;2022-11-23T15:12:26;11.93;;;2.60;;
56136;SDS011;42008;52.934;5.884;2022-11-23T15:15:14;14.73;;;2.40;;
56136;SDS011;42008;52.934;5.884;2022-11-23T15:20:17;13.35;;;2.50;;
56136;SDS011;42008;52.934;5.884;2022-11-23T15:22:43;10.43;;;2.47;;
56136;SDS011;42008;52.934;5.884;2022-11-23T15:25:13;12.37;;;2.33;;
56136;SDS011;42008;52.934;5.884;2022-11-23T15:27:42;13.47;;;2.33;;
56136;SDS011;42008;52.934;5.884;2022-11-23T15:30:13;12.07;;;2.33;;
56136;SDS011;42008;52.934;5.884;2022-11-23T15:32:40;12.35;;;2.63;;
56136;SDS011;42008;52.934;5.884;2022-11-23T15:35:06;10.57;;;2.30;;
56136;SDS011;42008;52.934;5.884;2022-11-23T15:37:41;17.60;;;3.43;;
56136;SDS011;42008;52.934;5.884;2022-11-23T15:40:17;14.53;;;2.57;;
56136;SDS011;42008;52.934;5.884;2022-11-23T15:42:43;13.13;;;2.77;;
56136;SDS011;42008;52.934;5.884;2022-11-23T15:48:01;10.60;;;2.53;;
56136;SDS011;42008;52.934;5.884;2022-11-23T15:50:28;9.30;;;2.10;;
56136;SDS011;42008;52.934;5.884;2022-11-23T15:52:53;13.23;;;2.67;;
56136;SDS011;42008;52.934;5.884;2022-11-23T15:55:19;11.43;;;2.50;;
56136;SDS011;42008;52.934;5.884;2022-11-23T15:57:50;12.17;;;2.70;;
56136;SDS011;42008;52.934;5.884;2022-11-23T16:00:21;14.13;;;3.00;;
56136;SDS011;42008;52.934;5.884;2022-11-23T16:02:49;13.57;;;2.90;;
56136;SDS011;42008;52.934;5.884;2022-11-23T16:05:16;14.40;;;4.57;;
56136;SDS011;42008;52.934;5.884;2022-11-23T16:13:31;12.23;;;2.57;;
56136;SDS011;42008;52.934;5.884;2022-11-23T16:16:00;15.57;;;3.30;;
56136;SDS011;42008;52.934;5.884;2022-11-23T16:18:33;10.13;;;2.73;;
56136;SDS011;42008;52.934;5.884;2022-11-23T16:21:00;18.17;;;3.30;;
56136;SDS011;42008;52.934;5.884;2022-11-23T16:23:39;13.83;;;2.73;;
56136;SDS011;42008;52.934;5.884;2022-11-23T16:26:13;14.80;;;3.30;;
56136;SDS011;42008;52.934;5.884;2022-11-23T16:28:49;14.07;;;3.10;;
56136;SDS011;42008;52.934;5.884;2022-11-23T16:31:37;15.40;;;3.03;;
56136;SDS011;42008;52.934;5.884;2022-11-23T16:34:16;14.50;;;3.80;;
56136;SDS011;42008;52.934;5.884;2022-11-23T16:36:43;12.50;;;2.97;;
56136;SDS011;42008;52.934;5.884;2022-11-23T16:39:08;16.60;;;3.20;;
56136;SDS011;42008;52.934;5.884;2022-11-23T16:41:34;12.23;;;2.73;;
56136;SDS011;42008;52.934;5.884;2022-11-23T16:44:00;15.17;;;2.87;;
56136;SDS011;42008;52.934;5.884;2022-11-23T16:46:25;11.23;;;2.73;;
56136;SDS011;42008;52.934;5.884;2022-11-23T16:48:51;8.67;;;2.33;;